Time;durP1;ratioP1;P1;durP2;ratioP2;P2;SDS_P1;SDS_P2;PMS_P1;PMS_P2;Temp;Humidity;BMP_temperature;BMP_pressure;BME280_temperature;BME280_humidity;BME280_pressure;Samples;Min_cycle;Max_cycle;Signal;HPM_P1;HPM_P2
2022/03/10 00:01:28;;;;;;;11.43;5.53;;;6.60;43.30;;;;;;4991771;28;20037;-87
2022/03/10 00:03:54;;;;;;;10.93;5.60;;;6.50;43.30;;;;;;4987536;28;20674;-87
2022/03/10 00:06:19;;;;;;;11.13;5.43;;;6.40;43.40;;;;;;4994493;28;20045;-87
2022/03/10 00:08:45;;;;;;;13.27;5.38;;;6.40;43.40;;;;;;4990825;28;20800;-88
2022/03/10 00:11:11;;;;;;;11.03;5.53;;;6.40;43.50;;;;;;5019044;28;20112;-87
2022/03/10 00:13:36;;;;;;;11.73;5.32;;;6.30;43.50;;;;;;5008947;28;20039;-87
2022/03/10 00:16:02;;;;;;;12.23;5.57;;;6.30;43.50;;;;;;5003271;28;20382;-86
2022/03/10 00:18:27;;;;;;;10.70;5.05;;;6.30;43.60;;;;;;4983561;28;20088;-85
2022/03/10 00:20:53;;;;;;;11.50;5.50;;;6.20;43.70;;;;;;5005424;28;20254;-86
2022/03/10 00:23:19;;;;;;;12.50;5.43;;;6.20;43.70;;;;;;4999371;28;20125;-85
2022/03/10 00:25:44;;;;;;;11.47;5.43;;;6.10;43.70;;;;;;4996278;28;20108;-85
2022/03/10 00:28:10;;;;;;;17.05;6.95;;;6.10;43.90;;;;;;5015921;28;20049;-85
2022/03/10 00:30:36;;;;;;;12.47;5.83;;;6.00;44.00;;;;;;4984237;28;20036;-85
2022/03/10 00:33:02;;;;;;;11.20;5.70;;;6.00;44.10;;;;;;4994613;28;20064;-85
2022/03/10 00:35:29;;;;;;;11.75;5.78;;;6.00;44.20;;;;;;5016963;28;20071;-85
2022/03/10 00:37:55;;;;;;;12.63;6.20;;;5.90;44.20;;;;;;5016828;28;20057;-87
2022/03/10 00:40:21;;;;;;;12.30;5.88;;;5.90;44.40;;;;;;5012254;28;20025;-85
2022/03/10 00:42:47;;;;;;;13.32;6.25;;;5.90;44.50;;;;;;4997126;28;20213;-86
2022/03/10 00:45:14;;;;;;;12.93;6.63;;;5.80;44.50;;;;;;5009625;28;20032;-85
2022/03/10 00:47:41;;;;;;;13.05;5.97;;;5.70;44.70;;;;;;5016421;28;20025;-85
2022/03/10 00:50:08;;;;;;;13.45;6.28;;;5.70;44.90;;;;;;5005250;28;20022;-85
2022/03/10 00:52:39;;;;;;;11.10;5.63;;;5.70;44.90;;;;;;4997612;28;20026;-87
2022/03/10 00:55:05;;;;;;;12.43;6.45;;;5.60;45.30;;;;;;4994624;28;20489;-85
2022/03/10 00:57:31;;;;;;;10.83;5.53;;;5.60;45.00;;;;;;5019358;28;20042;-85
2022/03/10 00:59:57;;;;;;;12.52;5.50;;;5.50;44.90;;;;;;4993085;28;21023;-85
2022/03/10 01:02:22;;;;;;;13.43;5.87;;;5.50;45.00;;;;;;5005738;28;20029;-85
2022/03/10 01:04:48;;;;;;;12.02;5.55;;;5.50;45.10;;;;;;4982720;28;21123;-85
2022/03/10 01:07:14;;;;;;;11.03;5.67;;;5.50;45.20;;;;;;4993190;28;20036;-85
2022/03/10 01:09:39;;;;;;;12.57;5.78;;;5.40;45.20;;;;;;5009946;28;20417;-86
2022/03/10 01:12:05;;;;;;;11.77;5.47;;;5.40;45.30;;;;;;5002326;28;20107;-85
2022/03/10 01:14:31;;;;;;;10.77;5.43;;;5.40;45.40;;;;;;4998460;28;20388;-85
2022/03/10 01:16:58;;;;;;;11.50;5.60;;;5.30;45.40;;;;;;5008605;28;20037;-85
2022/03/10 01:19:24;;;;;;;11.55;5.20;;;5.30;45.50;;;;;;5033241;28;20030;-85
2022/03/10 01:21:49;;;;;;;11.82;5.60;;;5.30;45.50;;;;;;5000265;28;20021;-85
2022/03/10 01:24:15;;;;;;;10.90;5.20;;;5.30;46.30;;;;;;5001608;28;20493;-85
2022/03/10 01:26:41;;;;;;;14.25;5.97;;;5.30;45.60;;;;;;5007200;28;20036;-85
2022/03/10 01:29:06;;;;;;;12.97;5.73;;;5.20;45.70;;;;;;5004033;28;20689;-85
2022/03/10 01:31:32;;;;;;;12.45;5.60;;;5.20;45.70;;;;;;5003947;28;20506;-85
2022/03/10 01:33:59;;;;;;;12.57;5.83;;;5.20;45.80;;;;;;5000351;28;20268;-85
2022/03/10 01:36:25;;;;;;;12.20;5.75;;;5.10;45.80;;;;;;4997093;28;20037;-85
2022/03/10 01:38:51;;;;;;;11.73;5.57;;;5.10;45.90;;;;;;4997644;28;20041;-86
2022/03/10 01:41:17;;;;;;;12.00;6.07;;;5.10;45.90;;;;;;4992419;28;20030;-85
2022/03/10 01:44:04;;;;;;;12.25;5.95;;;5.00;46.00;;;;;;4998524;28;20657;-85
2022/03/10 01:46:31;;;;;;;11.02;5.47;;;5.00;47.30;;;;;;5014380;28;20044;-85
2022/03/10 01:48:57;;;;;;;13.00;5.97;;;5.00;46.00;;;;;;4995084;28;20510;-85
2022/03/10 01:51:24;;;;;;;11.43;5.80;;;5.00;46.10;;;;;;4998504;28;20030;-85
2022/03/10 01:53:50;;;;;;;11.10;5.80;;;5.00;46.30;;;;;;4982029;28;20307;-85
2022/03/10 01:56:21;;;;;;;12.40;6.00;;;4.90;46.40;;;;;;4994140;28;20029;-85
2022/03/10 01:58:48;;;;;;;10.13;5.40;;;4.90;46.50;;;;;;4988984;28;20261;-85
2022/03/10 02:01:15;;;;;;;10.88;5.43;;;4.80;46.60;;;;;;4995877;28;20042;-85
2022/03/10 02:03:41;;;;;;;10.80;5.30;;;4.80;46.60;;;;;;5020230;28;20044;-86
2022/03/10 02:06:08;;;;;;;10.17;5.43;;;4.80;46.60;;;;;;5015231;28;20088;-85
2022/03/10 02:11:19;;;;;;;10.50;5.43;;;4.80;46.70;;;;;;5018218;28;20061;-85
2022/03/10 02:13:45;;;;;;;9.70;4.75;;;4.70;46.60;;;;;;5004389;28;20424;-86
2022/03/10 02:18:56;;;;;;;11.45;5.38;;;4.70;46.80;;;;;;5002653;28;20262;-85
2022/03/10 02:21:22;;;;;;;11.63;5.20;;;4.70;46.80;;;;;;5017127;28;20522;-85
2022/03/10 02:23:48;;;;;;;12.17;5.50;;;4.60;46.80;;;;;;4997443;28;20277;-85
2022/03/10 02:26:15;;;;;;;11.68;5.82;;;4.60;47.00;;;;;;5002670;28;20498;-85
2022/03/10 02:28:42;;;;;;;14.30;5.72;;;4.60;47.00;;;;;;5005602;28;20072;-85
2022/03/10 02:31:08;;;;;;;11.98;5.10;;;4.60;47.30;;;;;;5018967;28;20136;-86
2022/03/10 02:33:34;;;;;;;10.65;5.50;;;4.50;47.20;;;;;;4994874;28;20036;-86
2022/03/10 02:36:00;;;;;;;12.43;5.43;;;4.50;47.30;;;;;;4997627;28;20025;-85
2022/03/10 02:38:26;;;;;;;10.75;5.22;;;4.50;47.50;;;;;;5001764;28;20021;-85
2022/03/10 02:40:51;;;;;;;11.43;5.47;;;4.40;47.50;;;;;;4985472;28;20130;-85
2022/03/10 02:43:19;;;;;;;11.40;5.20;;;4.40;47.70;;;;;;4992322;28;20028;-86
2022/03/10 02:45:46;;;;;;;9.75;4.78;;;4.40;47.90;;;;;;5011644;28;20620;-85
2022/03/10 02:48:13;;;;;;;11.40;5.82;;;4.40;47.90;;;;;;4999007;28;20040;-85
2022/03/10 02:50:39;;;;;;;11.85;5.45;;;4.30;47.90;;;;;;5006736;28;20064;-85
2022/03/10 02:53:05;;;;;;;11.50;5.60;;;4.30;48.00;;;;;;5000231;28;20057;-86
2022/03/10 02:55:31;;;;;;;11.32;5.18;;;4.30;48.00;;;;;;5000830;28;20541;-85
2022/03/10 02:57:57;;;;;;;12.02;5.95;;;4.30;48.20;;;;;;5017894;28;20219;-85
2022/03/10 03:00:23;;;;;;;11.97;5.63;;;4.30;48.10;;;;;;5008586;28;20057;-86
2022/03/10 03:02:49;;;;;;;10.00;5.00;;;4.30;48.20;;;;;;4998587;28;20239;-86
2022/03/10 03:05:16;;;;;;;10.70;5.40;;;4.30;48.30;;;;;;5018540;28;20030;-86
2022/03/10 03:07:43;;;;;;;8.83;4.67;;;4.30;48.30;;;;;;5001998;28;20034;-85
2022/03/10 03:10:10;;;;;;;11.38;5.20;;;4.30;48.30;;;;;;5003716;28;20036;-88
2022/03/10 03:12:50;;;;;;;9.85;5.00;;;4.20;48.30;;;;;;5017061;28;20029;-88
2022/03/10 03:15:16;;;;;;;11.05;5.10;;;4.20;48.80;;;;;;5007577;28;20567;-85
2022/03/10 03:17:42;;;;;;;10.02;4.82;;;4.20;48.90;;;;;;5008196;28;20025;-85
2022/03/10 03:20:14;;;;;;;11.17;5.17;;;4.10;48.20;;;;;;5005530;28;20092;-85
2022/03/10 03:22:44;;;;;;;10.65;5.55;;;4.10;48.40;;;;;;4996611;28;20030;-85
2022/03/10 03:25:14;;;;;;;11.00;5.35;;;4.10;48.50;;;;;;4982299;28;20017;-86
2022/03/10 03:27:41;;;;;;;10.68;5.05;;;4.00;48.60;;;;;;5011759;28;20079;-85
2022/03/10 03:30:08;;;;;;;10.30;4.20;;;4.00;48.50;;;;;;4998721;28;20109;-88
2022/03/10 03:32:34;;;;;;;8.98;4.63;;;4.00;48.60;;;;;;4989985;28;20060;-85
2022/03/10 03:35:00;;;;;;;9.77;4.60;;;4.00;48.70;;;;;;5016880;28;20438;-85
2022/03/10 03:37:25;;;;;;;12.43;5.50;;;3.90;48.70;;;;;;5010226;28;20036;-85
2022/03/10 03:39:51;;;;;;;11.23;5.23;;;3.90;48.80;;;;;;4997729;28;20815;-85
2022/03/10 03:42:17;;;;;;;10.47;5.10;;;3.80;48.80;;;;;;5000359;28;20048;-85
2022/03/10 03:44:42;;;;;;;10.75;4.75;;;3.80;48.90;;;;;;4998137;28;20029;-85
2022/03/10 03:47:08;;;;;;;10.83;4.80;;;3.80;49.00;;;;;;4986505;28;20350;-85
2022/03/10 03:49:33;;;;;;;10.73;5.03;;;3.80;49.00;;;;;;4996549;28;20842;-85
2022/03/10 03:51:59;;;;;;;11.43;4.90;;;3.70;49.00;;;;;;5009904;28;20692;-86
2022/03/10 03:54:25;;;;;;;9.90;4.88;;;3.80;49.00;;;;;;4998036;28;20017;-85
2022/03/10 03:56:50;;;;;;;9.60;4.93;;;3.70;49.10;;;;;;4981492;28;20030;-85
2022/03/10 03:59:16;;;;;;;10.10;4.93;;;3.70;49.20;;;;;;5018211;28;20489;-85
2022/03/10 04:01:42;;;;;;;11.40;4.90;;;3.70;49.30;;;;;;5005670;28;20037;-85
2022/03/10 04:04:08;;;;;;;12.50;5.25;;;3.70;49.30;;;;;;4996014;28;20033;-86
2022/03/10 04:06:33;;;;;;;9.13;4.60;;;3.70;49.50;;;;;;4987615;28;20034;-85
2022/03/10 04:08:59;;;;;;;9.57;4.90;;;3.60;49.50;;;;;;4990039;28;20424;-86
2022/03/10 04:11:25;;;;;;;9.13;4.43;;;3.60;49.60;;;;;;5015235;28;20037;-88
2022/03/10 04:13:51;;;;;;;11.13;5.50;;;3.60;49.80;;;;;;4989390;28;20299;-87
2022/03/10 04:16:17;;;;;;;9.77;4.93;;;3.60;49.80;;;;;;4998995;28;20392;-87
2022/03/10 04:18:43;;;;;;;10.98;5.00;;;3.50;49.80;;;;;;5008689;28;20683;-87
2022/03/10 04:21:08;;;;;;;10.35;5.03;;;3.50;49.80;;;;;;5000680;28;20033;-86
2022/03/10 04:23:34;;;;;;;10.33;5.10;;;3.50;49.80;;;;;;4995743;28;20030;-86
2022/03/10 04:26:00;;;;;;;9.73;4.97;;;3.50;50.00;;;;;;5015181;28;20123;-86
2022/03/10 04:28:26;;;;;;;12.47;5.37;;;3.50;50.10;;;;;;5000007;28;20034;-86
2022/03/10 04:30:52;;;;;;;10.25;4.75;;;3.50;50.10;;;;;;5017359;28;20243;-86
2022/03/10 04:33:18;;;;;;;9.50;4.35;;;3.50;50.20;;;;;;5011208;28;20392;-86
2022/03/10 04:35:44;;;;;;;11.13;4.77;;;3.50;50.30;;;;;;5008891;28;20064;-86
2022/03/10 04:38:10;;;;;;;10.43;5.13;;;3.50;50.40;;;;;;5021421;28;20029;-86
2022/03/10 04:40:37;;;;;;;9.05;4.72;;;3.50;50.50;;;;;;5004772;28;20502;-86
2022/03/10 04:43:03;;;;;;;9.77;4.97;;;3.50;50.70;;;;;;4982553;28;20048;-86
2022/03/10 04:45:29;;;;;;;10.43;4.85;;;3.50;50.70;;;;;;5007093;28;20067;-86
2022/03/10 04:47:55;;;;;;;10.87;4.80;;;3.50;50.80;;;;;;5008987;28;20506;-86
2022/03/10 04:50:20;;;;;;;8.77;4.32;;;3.50;50.80;;;;;;5009320;28;20461;-86
2022/03/10 04:52:46;;;;;;;10.90;4.87;;;3.50;50.80;;;;;;5016759;28;20025;-86
2022/03/10 04:55:13;;;;;;;10.82;4.45;;;3.40;50.80;;;;;;5012219;28;20045;-86
2022/03/10 04:57:39;;;;;;;10.38;4.90;;;3.50;50.80;;;;;;5005262;28;20037;-86
2022/03/10 05:00:10;;;;;;;10.07;4.78;;;3.50;50.90;;;;;;5018328;28;20029;-86
2022/03/10 05:02:40;;;;;;;11.27;4.53;;;3.40;50.90;;;;;;5002061;28;20033;-86
2022/03/10 05:05:07;;;;;;;9.43;4.57;;;3.40;50.80;;;;;;5011154;28;20557;-86
2022/03/10 05:07:34;;;;;;;9.55;4.28;;;3.40;50.90;;;;;;5002363;28;20033;-86
2022/03/10 05:09:59;;;;;;;11.98;5.05;;;3.40;50.90;;;;;;5018970;28;20107;-86
2022/03/10 05:12:25;;;;;;;9.20;4.60;;;3.30;50.90;;;;;;5001993;28;20029;-87
2022/03/10 05:14:51;;;;;;;9.43;4.63;;;3.30;51.10;;;;;;5001668;28;20186;-86
2022/03/10 05:17:17;;;;;;;9.60;4.88;;;3.30;51.10;;;;;;4999740;28;20026;-87
2022/03/10 05:19:43;;;;;;;10.07;4.73;;;3.30;51.10;;;;;;5005602;28;20627;-86
2022/03/10 05:22:08;;;;;;;11.38;4.78;;;3.20;51.00;;;;;;5003504;28;20108;-86
2022/03/10 05:24:35;;;;;;;10.80;4.50;;;3.20;51.10;;;;;;5003997;28;20041;-86
2022/03/10 05:27:01;;;;;;;10.40;4.93;;;3.20;51.20;;;;;;4993968;28;20828;-86
2022/03/10 05:29:26;;;;;;;9.43;4.57;;;3.20;51.30;;;;;;4989698;28;20103;-86
2022/03/10 05:31:52;;;;;;;10.13;4.63;;;3.20;51.40;;;;;;4986577;28;20248;-86
2022/03/10 05:34:19;;;;;;;9.95;4.57;;;3.20;51.50;;;;;;4993184;28;20776;-87
2022/03/10 05:36:44;;;;;;;10.40;4.22;;;3.10;52.10;;;;;;4988166;28;20033;-87
2022/03/10 05:39:10;;;;;;;9.60;4.30;;;3.10;51.40;;;;;;5003399;28;20620;-87
2022/03/10 05:41:36;;;;;;;8.90;4.10;;;3.10;51.50;;;;;;4997887;28;20029;-86
2022/03/10 05:44:03;;;;;;;9.82;4.15;;;3.10;51.60;;;;;;4992486;28;20654;-87
2022/03/10 05:46:28;;;;;;;9.40;4.50;;;3.10;51.60;;;;;;5000932;28;20410;-86
2022/03/10 05:48:54;;;;;;;10.40;4.53;;;3.00;51.60;;;;;;5018343;28;20087;-87
2022/03/10 05:51:20;;;;;;;12.57;4.10;;;3.10;51.80;;;;;;4992643;28;20033;-87
2022/03/10 05:53:50;;;;;;;8.98;4.35;;;3.00;51.70;;;;;;4999415;28;20052;-87
2022/03/10 05:56:16;;;;;;;9.53;4.17;;;3.00;51.90;;;;;;4997097;28;20109;-87
2022/03/10 05:58:42;;;;;;;7.13;4.00;;;3.00;51.60;;;;;;5004165;28;20037;-87
2022/03/10 06:01:08;;;;;;;9.93;4.60;;;2.90;51.70;;;;;;4984392;28;20041;-87
2022/03/10 06:03:34;;;;;;;9.03;4.33;;;2.90;51.80;;;;;;4997777;28;20034;-86
2022/03/10 06:05:59;;;;;;;8.43;4.20;;;2.90;52.00;;;;;;4986785;28;20025;-86
2022/03/10 06:08:25;;;;;;;9.50;4.73;;;2.90;52.00;;;;;;4998884;28;20700;-87
2022/03/10 06:10:51;;;;;;;11.13;5.38;;;2.90;52.10;;;;;;4998072;28;20025;-87
2022/03/10 06:13:16;;;;;;;9.40;4.30;;;2.90;52.20;;;;;;4980787;28;20030;-87
2022/03/10 06:15:42;;;;;;;10.30;4.57;;;2.90;52.40;;;;;;4980417;28;20056;-87
2022/03/10 06:18:08;;;;;;;10.40;4.27;;;2.80;52.30;;;;;;5005498;28;20037;-87
2022/03/10 06:20:34;;;;;;;10.23;4.27;;;2.80;52.40;;;;;;5002917;28;20539;-86
2022/03/10 06:23:00;;;;;;;9.02;4.45;;;2.90;52.60;;;;;;4977136;28;20564;-87
2022/03/10 06:25:26;;;;;;;8.80;4.40;;;2.90;52.60;;;;;;5010200;28;20334;-88
2022/03/10 06:27:52;;;;;;;9.27;4.63;;;2.90;52.70;;;;;;4992408;28;20133;-86
2022/03/10 06:30:18;;;;;;;10.07;5.10;;;2.80;52.70;;;;;;4980941;28;20594;-88
2022/03/10 06:32:43;;;;;;;10.27;4.70;;;2.90;52.90;;;;;;4997384;28;20021;-85
2022/03/10 06:35:09;;;;;;;10.77;4.80;;;2.90;53.00;;;;;;5007906;28;20026;-86
2022/03/10 06:37:35;;;;;;;9.90;4.60;;;2.90;53.00;;;;;;4995089;28;20293;-88
2022/03/10 06:40:02;;;;;;;9.52;4.72;;;3.00;53.10;;;;;;4989997;28;20036;-87
2022/03/10 06:42:30;;;;;;;10.02;4.63;;;3.00;53.20;;;;;;5004819;28;20218;-85
2022/03/10 06:44:55;;;;;;;9.70;4.70;;;3.00;53.30;;;;;;5007309;28;20033;-85
2022/03/10 06:47:21;;;;;;;9.67;4.50;;;3.00;53.30;;;;;;4974729;28;20056;-85
2022/03/10 06:49:47;;;;;;;9.77;4.55;;;3.10;53.50;;;;;;4999372;28;20128;-86
2022/03/10 06:52:13;;;;;;;9.73;4.17;;;3.20;53.80;;;;;;5004447;28;20033;-86
2022/03/10 06:54:40;;;;;;;8.75;4.50;;;3.30;54.10;;;;;;4999154;28;20589;-86
2022/03/10 06:57:06;;;;;;;8.45;4.68;;;3.40;54.30;;;;;;4988988;28;20032;-86
2022/03/10 06:59:32;;;;;;;8.95;4.40;;;3.50;54.20;;;;;;4985958;28;20228;-86
2022/03/10 07:01:58;;;;;;;10.20;4.60;;;3.70;54.10;;;;;;4984254;28;20118;-86
2022/03/10 07:04:24;;;;;;;9.18;4.40;;;3.80;54.20;;;;;;4979473;28;20234;-86
2022/03/10 07:06:49;;;;;;;9.33;4.53;;;4.00;54.40;;;;;;5006522;28;20088;-86
2022/03/10 07:09:15;;;;;;;11.50;4.70;;;4.10;54.70;;;;;;5008493;28;20091;-86
2022/03/10 07:11:41;;;;;;;10.18;4.65;;;4.30;55.00;;;;;;4996954;28;20017;-86
2022/03/10 07:14:07;;;;;;;9.40;4.57;;;4.60;55.10;;;;;;5014588;28;20448;-86
2022/03/10 07:16:32;;;;;;;9.43;4.95;;;4.80;55.00;;;;;;5000122;28;20172;-86
2022/03/10 07:18:58;;;;;;;10.60;4.80;;;5.10;55.20;;;;;;4984842;28;20033;-86
2022/03/10 07:21:24;;;;;;;8.55;4.20;;;5.30;55.00;;;;;;4996644;28;20030;-86
2022/03/10 07:23:50;;;;;;;8.97;4.00;;;5.50;54.70;;;;;;4991534;28;20545;-86
2022/03/10 07:26:16;;;;;;;10.07;4.40;;;5.70;54.60;;;;;;4980763;28;20033;-86
2022/03/10 07:28:43;;;;;;;9.40;4.03;;;5.90;54.10;;;;;;5003971;28;20056;-86
2022/03/10 07:31:09;;;;;;;9.30;3.87;;;6.00;54.00;;;;;;4975618;28;20052;-86
2022/03/10 07:33:35;;;;;;;7.80;4.05;;;6.20;54.10;;;;;;5003398;28;20621;-86
2022/03/10 07:36:02;;;;;;;7.10;3.97;;;6.40;54.40;;;;;;4996621;28;20336;-86
2022/03/10 07:38:27;;;;;;;8.40;4.00;;;6.70;54.90;;;;;;5001730;28;20309;-86
2022/03/10 07:40:54;;;;;;;10.00;4.57;;;7.00;55.50;;;;;;4995567;28;20123;-86
2022/03/10 07:43:20;;;;;;;8.23;4.15;;;7.30;55.40;;;;;;4999546;28;20033;-86
2022/03/10 07:45:46;;;;;;;7.43;4.30;;;7.70;55.70;;;;;;4989472;28;20037;-86
2022/03/10 07:48:12;;;;;;;8.07;4.50;;;8.20;55.90;;;;;;4990516;28;20303;-86
2022/03/10 07:50:38;;;;;;;6.87;3.83;;;8.60;56.00;;;;;;5002200;28;20037;-86
2022/03/10 07:53:04;;;;;;;8.45;4.90;;;9.10;56.30;;;;;;5009030;28;20191;-86
2022/03/10 07:55:30;;;;;;;9.73;5.22;;;9.60;56.40;;;;;;5008212;28;20034;-86
2022/03/10 07:57:55;;;;;;;8.60;4.70;;;10.10;56.50;;;;;;5003101;28;20032;-86
2022/03/10 08:00:21;;;;;;;10.55;5.25;;;10.70;56.70;;;;;;5018632;28;20150;-86
2022/03/10 08:02:47;;;;;;;10.95;5.90;;;11.20;56.70;;;;;;4985365;28;20714;-86
2022/03/10 08:05:13;;;;;;;12.20;6.70;;;11.80;56.30;;;;;;4985715;28;20231;-87
2022/03/10 08:07:38;;;;;;;11.90;6.30;;;12.30;55.50;;;;;;5011508;28;20041;-86
2022/03/10 08:10:06;;;;;;;10.73;5.77;;;12.80;55.00;;;;;;5012467;28;20242;-87
2022/03/10 08:12:34;;;;;;;10.55;6.20;;;13.30;54.60;;;;;;5001075;28;20026;-87
2022/03/10 08:15:00;;;;;;;9.85;5.85;;;13.70;54.30;;;;;;4983681;28;20050;-87
2022/03/10 08:17:26;;;;;;;11.27;6.13;;;14.20;54.00;;;;;;4983712;28;20053;-87
2022/03/10 08:19:52;;;;;;;12.10;6.60;;;14.60;53.70;;;;;;5001944;28;20057;-86
2022/03/10 08:22:20;;;;;;;11.10;6.30;;;15.00;53.10;;;;;;4992884;28;20029;-87
2022/03/10 08:24:46;;;;;;;12.07;6.38;;;15.40;52.70;;;;;;5003522;28;20144;-87
2022/03/10 08:27:13;;;;;;;12.73;6.68;;;15.70;52.20;;;;;;5019204;28;20585;-87
2022/03/10 08:29:39;;;;;;;13.30;6.87;;;16.10;51.80;;;;;;4980207;28;20052;-87
2022/03/10 08:32:05;;;;;;;10.85;6.25;;;16.40;51.40;;;;;;4998535;28;20029;-87
2022/03/10 08:34:30;;;;;;;11.50;6.80;;;16.70;51.10;;;;;;4983080;28;20394;-86
2022/03/10 08:36:57;;;;;;;11.33;6.17;;;17.10;50.70;;;;;;4977040;28;20033;-86
2022/03/10 08:39:23;;;;;;;10.95;6.15;;;17.30;50.20;;;;;;4996681;28;20348;-86
2022/03/10 08:41:49;;;;;;;10.47;5.80;;;17.70;49.70;;;;;;4996745;28;20510;-87
2022/03/10 08:44:16;;;;;;;9.93;6.10;;;17.90;49.10;;;;;;4991601;28;20017;-86
2022/03/10 08:46:41;;;;;;;11.07;6.70;;;18.10;48.80;;;;;;5001612;28;20087;-87
2022/03/10 08:49:07;;;;;;;10.63;6.50;;;18.40;48.30;;;;;;5010809;28;20034;-87
2022/03/10 08:51:33;;;;;;;10.93;6.23;;;18.60;47.80;;;;;;5008058;28;20030;-87
2022/03/10 08:53:59;;;;;;;10.70;6.40;;;18.70;47.40;;;;;;4992693;28;20033;-86
2022/03/10 08:56:24;;;;;;;12.37;6.97;;;18.90;47.20;;;;;;4995122;28;20025;-87
2022/03/10 08:58:50;;;;;;;9.70;5.90;;;19.20;46.80;;;;;;4981836;28;20280;-87
2022/03/10 09:01:16;;;;;;;10.38;6.43;;;19.30;46.60;;;;;;4988146;28;20080;-86
2022/03/10 09:03:42;;;;;;;9.73;5.97;;;19.60;46.30;;;;;;5000416;28;20478;-87
2022/03/10 09:06:10;;;;;;;10.95;6.80;;;19.70;46.00;;;;;;5008369;28;20030;-87
2022/03/10 09:08:36;;;;;;;7.88;5.25;;;20.00;45.80;;;;;;4989683;28;20393;-86
2022/03/10 09:11:02;;;;;;;10.57;6.57;;;20.20;45.80;;;;;;5013676;28;20014;-87
2022/03/10 09:13:28;;;;;;;10.83;6.90;;;20.40;44.90;;;;;;5019114;28;20021;-87
2022/03/10 09:15:54;;;;;;;10.18;6.38;;;20.60;44.60;;;;;;5015228;28;20308;-87
2022/03/10 09:18:20;;;;;;;10.55;6.25;;;20.80;44.20;;;;;;4992074;28;20595;-87
2022/03/10 09:20:46;;;;;;;10.47;6.60;;;21.00;44.00;;;;;;5008663;28;20065;-87
2022/03/10 09:23:11;;;;;;;10.77;6.38;;;21.20;43.60;;;;;;5004457;28;20028;-86
2022/03/10 09:25:38;;;;;;;11.00;7.00;;;21.40;43.30;;;;;;4999333;28;20081;-87
2022/03/10 09:28:04;;;;;;;10.05;6.43;;;21.60;42.90;;;;;;4994583;28;20040;-88
2022/03/10 09:30:30;;;;;;;8.60;5.47;;;21.70;42.60;;;;;;4988852;28;20033;-87
2022/03/10 09:32:57;;;;;;;9.60;6.07;;;21.90;42.60;;;;;;4979990;28;20701;-87
2022/03/10 09:35:24;;;;;;;9.98;6.32;;;22.10;42.10;;;;;;4980664;28;20030;-88
2022/03/10 09:37:50;;;;;;;9.00;5.73;;;22.30;41.90;;;;;;5004320;28;20084;-87
2022/03/10 09:40:15;;;;;;;8.73;5.85;;;22.50;41.80;;;;;;4994426;28;20042;-88
2022/03/10 09:42:42;;;;;;;10.33;7.07;;;22.70;41.10;;;;;;5003822;28;20038;-87
2022/03/10 09:45:10;;;;;;;9.38;6.57;;;22.80;40.20;;;;;;5000616;28;20176;-87
2022/03/10 09:47:41;;;;;;;10.43;6.07;;;23.00;39.70;;;;;;4992020;28;20063;-88
2022/03/10 09:50:10;;;;;;;8.02;5.60;;;23.10;39.50;;;;;;4992641;28;20124;-88
2022/03/10 09:52:36;;;;;;;8.93;6.13;;;23.20;39.80;;;;;;5019799;28;20253;-87
2022/03/10 09:55:04;;;;;;;8.15;6.07;;;23.50;39.70;;;;;;4988057;28;20031;-88
2022/03/10 09:57:29;;;;;;;9.13;6.22;;;23.60;39.50;;;;;;5013998;28;20026;-88
2022/03/10 09:59:59;;;;;;;10.32;7.22;;;23.80;39.30;;;;;;5002344;28;20444;-88
2022/03/10 10:02:27;;;;;;;11.20;7.77;;;24.00;38.00;;;;;;4982440;28;20269;-88
2022/03/10 10:04:53;;;;;;;8.27;5.75;;;24.20;37.20;;;;;;5001141;28;20034;-87
2022/03/10 10:07:21;;;;;;;9.48;6.88;;;24.30;37.10;;;;;;4991309;28;20144;-88
2022/03/10 10:09:56;;;;;;;10.27;5.90;;;24.40;36.70;;;;;;5019049;28;20619;-88
2022/03/10 10:12:29;;;;;;;9.32;6.47;;;24.40;36.60;;;;;;5000819;28;20604;-88
2022/03/10 10:14:57;;;;;;;8.50;6.27;;;24.60;36.60;;;;;;4994044;28;20346;-88
2022/03/10 10:17:31;;;;;;;9.15;6.25;;;24.70;36.70;;;;;;5011701;28;20252;-88
2022/03/10 10:20:00;;;;;;;8.45;5.70;;;24.90;36.30;;;;;;4985434;28;20018;-88
2022/03/10 10:22:27;;;;;;;7.95;5.85;;;25.10;36.10;;;;;;4990479;28;20529;-88
2022/03/10 10:25:02;;;;;;;8.75;5.82;;;25.20;35.90;;;;;;4982936;28;20148;-88
2022/03/10 10:27:33;;;;;;;9.63;6.37;;;25.40;35.00;;;;;;4990523;28;20026;-89
2022/03/10 10:30:02;;;;;;;9.68;6.15;;;25.60;35.00;;;;;;5017443;28;20041;-88
2022/03/10 10:32:33;;;;;;;10.18;7.07;;;25.70;34.40;;;;;;4994264;28;20569;-87
2022/03/10 10:35:10;;;;;;;8.93;6.03;;;25.80;32.90;;;;;;4974368;28;20021;-88
2022/03/10 10:37:39;;;;;;;8.88;6.13;;;25.80;33.60;;;;;;5004924;28;20147;-88
2022/03/10 10:40:07;;;;;;;9.23;6.30;;;25.80;33.60;;;;;;5007769;28;20461;-88
2022/03/10 10:42:39;;;;;;;7.50;5.63;;;25.90;33.90;;;;;;4983057;28;20116;-87
2022/03/10 10:45:32;;;;;;;8.55;6.40;;;26.00;33.90;;;;;;5016006;28;20029;-87
2022/03/10 10:47:59;;;;;;;9.10;6.38;;;26.20;32.70;;;;;;5016888;28;20060;-88
2022/03/10 10:50:27;;;;;;;8.05;5.50;;;26.20;32.80;;;;;;4975000;28;20025;-87
2022/03/10 10:52:53;;;;;;;7.80;5.97;;;26.40;32.90;;;;;;5006924;28;20144;-87
2022/03/10 10:55:18;;;;;;;10.30;7.20;;;26.40;32.20;;;;;;5007591;28;20033;-88
2022/03/10 10:57:44;;;;;;;10.40;6.80;;;26.50;31.80;;;;;;4996977;28;20051;-87
2022/03/10 11:00:12;;;;;;;7.68;5.75;;;26.40;31.40;;;;;;4974574;28;20402;-88
2022/03/10 11:02:42;;;;;;;8.82;6.25;;;26.50;32.20;;;;;;5007373;28;20162;-87
2022/03/10 11:05:12;;;;;;;7.68;5.47;;;26.60;31.30;;;;;;4981061;28;20038;-87
2022/03/10 11:07:40;;;;;;;9.53;6.27;;;26.60;31.60;;;;;;4984094;28;20168;-88
2022/03/10 11:10:07;;;;;;;9.43;6.43;;;26.60;31.00;;;;;;4974317;28;20053;-89
2022/03/10 11:12:37;;;;;;;7.88;5.55;;;26.60;31.00;;;;;;5007209;28;20033;-88
2022/03/10 11:15:03;;;;;;;8.57;5.43;;;26.70;30.90;;;;;;4980851;28;20026;-88
2022/03/10 11:17:29;;;;;;;8.48;6.05;;;26.70;30.80;;;;;;4992724;28;20030;-89
2022/03/10 11:19:58;;;;;;;10.30;6.50;;;26.70;30.50;;;;;;4981055;28;20037;-88
2022/03/10 11:22:50;;;;;;;9.85;6.90;;;26.80;30.50;;;;;;4975642;28;20026;-87
2022/03/10 11:25:33;;;;;;;9.88;6.90;;;26.80;30.00;;;;;;4986745;28;20112;-87
2022/03/10 11:28:03;;;;;;;10.65;6.63;;;27.00;29.90;;;;;;5006023;28;20812;-88
2022/03/10 11:30:32;;;;;;;9.32;6.68;;;27.00;30.00;;;;;;5003467;28;20502;-88
2022/03/10 11:33:00;;;;;;;9.93;6.57;;;27.00;29.80;;;;;;4991245;28;20258;-87
2022/03/10 11:35:31;;;;;;;11.10;7.15;;;27.10;29.70;;;;;;4989832;28;20041;-88
2022/03/10 11:37:57;;;;;;;10.10;6.75;;;27.20;29.40;;;;;;4982782;28;20014;-88
2022/03/10 11:40:44;;;;;;;9.73;6.65;;;27.20;29.80;;;;;;4995210;28;20029;-87
2022/03/10 11:43:15;;;;;;;9.77;6.32;;;27.20;29.50;;;;;;5015176;28;20116;-89
2022/03/10 11:45:41;;;;;;;9.17;6.50;;;27.30;29.90;;;;;;4976803;28;20120;-89
2022/03/10 11:48:22;;;;;;;8.85;5.90;;;27.50;30.10;;;;;;5011613;28;20530;-89
2022/03/10 11:50:51;;;;;;;7.13;5.43;;;27.70;29.60;;;;;;4989569;28;20245;-87
2022/03/10 11:53:17;;;;;;;9.27;6.30;;;27.90;30.30;;;;;;4986453;28;20112;-87
2022/03/10 11:55:51;;;;;;;9.50;6.63;;;28.30;30.40;;;;;;4982814;28;20730;-88
2022/03/10 11:58:36;;;;;;;10.10;6.63;;;28.40;28.90;;;;;;4991771;28;20267;-88
2022/03/10 12:01:02;;;;;;;9.63;6.72;;;28.50;28.60;;;;;;4991475;28;20061;-88
2022/03/10 12:03:36;;;;;;;8.65;6.03;;;28.50;29.00;;;;;;4987950;28;20087;-89
2022/03/10 12:06:07;;;;;;;9.45;6.80;;;28.50;28.60;;;;;;4997626;28;20021;-88
2022/03/10 12:08:35;;;;;;;8.00;5.45;;;28.70;28.70;;;;;;4964490;28;20518;-88
2022/03/10 12:11:03;;;;;;;7.97;5.60;;;28.70;28.40;;;;;;5007117;28;20069;-89
2022/03/10 12:13:29;;;;;;;9.07;5.90;;;28.80;28.20;;;;;;4992240;28;20132;-89
2022/03/10 12:15:56;;;;;;;10.93;6.25;;;28.90;28.00;;;;;;4981895;28;20070;-89
2022/03/10 12:18:25;;;;;;;7.72;5.53;;;28.90;27.20;;;;;;4981640;28;20034;-88
2022/03/10 12:20:53;;;;;;;7.50;4.72;;;28.90;27.40;;;;;;4980593;28;20262;-89
2022/03/10 12:23:22;;;;;;;6.30;4.40;;;28.90;27.40;;;;;;4977142;28;20072;-88
2022/03/10 12:26:04;;;;;;;6.88;4.63;;;28.90;27.70;;;;;;4998967;28;20289;-89
2022/03/10 12:28:37;;;;;;;7.32;4.95;;;29.00;27.20;;;;;;4989549;28;20053;-88
2022/03/10 12:31:16;;;;;;;7.10;4.75;;;29.10;27.20;;;;;;4999806;28;20709;-89
2022/03/10 12:34:05;;;;;;;6.90;4.57;;;29.10;27.20;;;;;;4974310;28;20499;-87
2022/03/10 12:36:35;;;;;;;7.07;4.83;;;29.10;27.60;;;;;;5005672;28;20025;-88
2022/03/10 12:39:08;;;;;;;7.13;4.85;;;29.20;27.30;;;;;;4994575;28;20057;-88
2022/03/10 12:41:41;;;;;;;6.07;4.40;;;29.20;26.80;;;;;;4983461;28;20388;-89
2022/03/10 12:44:09;;;;;;;6.22;3.90;;;29.10;26.40;;;;;;4996518;28;20029;-89
2022/03/10 12:46:37;;;;;;;6.80;4.45;;;29.00;27.00;;;;;;5001117;28;20112;-88
2022/03/10 12:49:20;;;;;;;7.63;4.37;;;28.90;26.80;;;;;;4981294;28;20124;-88
2022/03/10 12:51:47;;;;;;;6.93;4.45;;;28.90;26.70;;;;;;5017765;28;20131;-88
2022/03/10 12:54:12;;;;;;;6.43;4.40;;;28.80;26.60;;;;;;4992857;28;20028;-88